Time;durP1;ratioP1;P1;durP2;ratioP2;P2;SDS_P1;SDS_P2;PMS_P1;PMS_P2;Temp;Humidity;BMP_temperature;BMP_pressure;BME280_temperature;BME280_humidity;BME280_pressure;Samples;Min_cycle;Max_cycle;Signal;HPM_P1;HPM_P2
2024/02/08 00:01:15;;;;;;;1.80;1.10;;;;;;;8.51;100.00;153546.44;4989906;28;20433;-93
2024/02/08 00:03:42;;;;;;;2.50;0.90;;;;;;;8.50;100.00;153543.84;4979657;28;20481;-95
2024/02/08 00:06:09;;;;;;;5.63;1.30;;;;;;;8.54;100.00;153552.91;4979847;28;20971;-94
2024/02/08 00:08:37;;;;;;;2.17;1.00;;;;;;;8.52;100.00;153549.00;4979423;28;20456;-95
2024/02/08 00:11:06;;;;;;;1.27;0.90;;;;;;;8.52;100.00;153549.00;4979524;28;20986;-94
2024/02/08 00:13:32;;;;;;;1.00;0.80;;;;;;;8.54;100.00;153552.91;4979592;28;20511;-94
2024/02/08 00:15:59;;;;;;;1.20;0.77;;;;;;;8.55;100.00;153556.75;4995834;28;20437;-94
2024/02/08 00:18:26;;;;;;;1.83;1.07;;;;;;;8.55;100.00;153556.75;4979036;28;20432;-95
2024/02/08 00:20:52;;;;;;;1.10;0.70;;;;;;;8.57;100.00;153560.66;4995272;28;20436;-95
2024/02/08 00:23:19;;;;;;;1.40;0.93;;;;;;;8.59;100.00;153565.81;4995414;28;20460;-95
2024/02/08 00:25:47;;;;;;;1.73;1.00;;;;;;;8.60;100.00;153567.13;4979414;28;20480;-95
2024/02/08 00:28:14;;;;;;;1.23;0.80;;;;;;;8.62;100.00;153572.28;5011724;28;20448;-94
2024/02/08 00:30:40;;;;;;;1.10;0.60;;;;;;;8.62;100.00;153573.59;4995603;28;20967;-95
2024/02/08 00:33:07;;;;;;;1.13;0.90;;;;;;;8.62;100.00;153573.59;5024207;28;20840;-95
2024/02/08 00:35:34;;;;;;;1.20;0.70;;;;;;;8.65;100.00;153580.03;5031399;28;20435;-94
2024/02/08 00:38:01;;;;;;;0.93;0.70;;;;;;;8.66;100.00;153583.91;5014863;28;20452;-95
2024/02/08 00:40:28;;;;;;;1.20;0.60;;;;;;;8.66;100.00;153582.66;5031221;28;20440;-94
2024/02/08 00:42:56;;;;;;;1.10;0.67;;;;;;;8.66;100.00;153582.66;5031429;28;20475;-94
2024/02/08 00:45:23;;;;;;;1.20;0.60;;;;;;;8.67;100.00;153585.22;5031189;28;20483;-95
2024/02/08 00:47:50;;;;;;;1.67;0.87;;;;;;;8.68;100.00;153587.81;5035494;28;20905;-95
2024/02/08 00:50:17;;;;;;;1.60;0.80;;;;;;;8.69;100.00;153590.38;5041282;28;20447;-95
2024/02/08 00:52:43;;;;;;;1.70;0.70;;;;;;;8.69;100.00;153590.38;5016614;28;20436;-94
2024/02/08 00:55:10;;;;;;;1.60;0.77;;;;;;;8.68;100.00;153589.13;5030758;28;20440;-94
2024/02/08 00:57:38;;;;;;;1.33;0.70;;;;;;;8.69;100.00;153591.66;5030776;28;20428;-94
2024/02/08 01:00:08;;;;;;;1.20;0.70;;;;;;;8.70;100.00;153592.97;5014441;28;20464;-94
2024/02/08 01:02:34;;;;;;;1.57;1.00;;;;;;;8.70;100.00;153594.28;5030707;28;20428;-94
2024/02/08 01:05:01;;;;;;;1.20;0.80;;;;;;;8.71;100.00;153595.56;5014101;28;20990;-94
2024/02/08 01:07:31;;;;;;;1.03;0.67;;;;;;;8.72;100.00;153598.13;5030691;28;20443;-95
2024/02/08 01:09:58;;;;;;;1.60;0.70;;;;;;;8.73;100.00;153600.72;5013920;28;20440;-94
2024/02/08 01:12:26;;;;;;;1.90;0.83;;;;;;;8.73;100.00;153600.72;5014355;28;20436;-94
2024/02/08 01:14:53;;;;;;;1.90;0.80;;;;;;;8.73;100.00;153602.03;5014063;28;20474;-95
2024/02/08 01:17:20;;;;;;;1.57;0.80;;;;;;;8.72;100.00;153599.44;5014942;28;20432;-94
2024/02/08 01:19:47;;;;;;;1.20;0.70;;;;;;;8.71;100.00;153596.81;5032059;28;20463;-94
2024/02/08 01:22:20;;;;;;;0.87;0.50;;;;;;;8.71;100.00;153596.81;5014833;28;20851;-94
2024/02/08 01:24:48;;;;;;;1.53;0.90;;;;;;;8.73;100.00;153600.72;5013502;28;20492;-95
2024/02/08 01:27:15;;;;;;;1.30;0.67;;;;;;;8.74;100.00;153603.28;5013783;28;20915;-94
2024/02/08 01:29:41;;;;;;;1.40;0.60;;;;;;;8.73;100.00;153602.03;5030340;28;20466;-95
2024/02/08 01:32:08;;;;;;;1.23;0.63;;;;;;;8.74;100.00;153603.28;5030491;28;20514;-94
2024/02/08 01:34:36;;;;;;;1.40;0.80;;;;;;;8.76;100.00;153608.50;5013738;28;20444;-95
2024/02/08 01:37:03;;;;;;;1.43;0.77;;;;;;;8.74;100.00;153604.59;5013433;28;20432;-94
2024/02/08 01:39:30;;;;;;;1.40;0.80;;;;;;;8.74;100.00;153603.28;5013450;28;20555;-95
2024/02/08 01:41:58;;;;;;;1.23;0.90;;;;;;;8.74;100.00;153603.28;5013635;28;20942;-92
2024/02/08 01:44:25;;;;;;;1.33;0.53;;;;;;;8.78;100.00;153613.66;5015319;28;20621;-94
2024/02/08 01:46:51;;;;;;;1.10;0.70;;;;;;;8.80;100.00;153618.81;5014274;28;20942;-94
2024/02/08 01:49:20;;;;;;;1.00;0.60;;;;;;;8.80;100.00;153620.13;5023985;28;20467;-95
2024/02/08 01:51:49;;;;;;;1.33;0.90;;;;;;;8.78;100.00;153614.97;5012990;28;20440;-95
2024/02/08 01:54:19;;;;;;;1.07;0.60;;;;;;;8.78;100.00;153613.66;5004540;28;20595;-94
2024/02/08 01:56:47;;;;;;;1.53;0.80;;;;;;;8.78;100.00;153613.66;4993413;28;20463;-94
2024/02/08 01:59:19;;;;;;;1.20;0.77;;;;;;;8.81;100.00;153621.41;4993821;28;20993;-94
2024/02/08 02:01:51;;;;;;;1.13;0.80;;;;;;;8.83;100.00;153626.59;5027177;28;20908;-94
2024/02/08 02:04:17;;;;;;;1.50;0.63;;;;;;;8.83;100.00;153626.59;5032855;28;20481;-94
2024/02/08 02:06:45;;;;;;;1.00;0.73;;;;;;;8.84;100.00;153629.19;5012563;28;20455;-95
2024/02/08 02:09:23;;;;;;;1.47;0.83;;;;;;;8.82;100.00;153623.97;4993745;28;20433;-94
2024/02/08 02:11:56;;;;;;;1.40;0.80;;;;;;;8.79;100.00;153616.25;5026647;28;21000;-94
2024/02/08 02:14:28;;;;;;;1.40;0.80;;;;;;;8.81;100.00;153621.41;5029189;28;20455;-94
2024/02/08 02:17:03;;;;;;;1.10;0.70;;;;;;;8.81;100.00;153622.72;5012834;28;20963;-94
2024/02/08 02:19:31;;;;;;;1.50;0.77;;;;;;;8.79;100.00;153617.50;5015641;28;20473;-93
2024/02/08 02:21:59;;;;;;;0.90;0.53;;;;;;;8.81;100.00;153621.41;5016175;28;20447;-94
2024/02/08 02:24:25;;;;;;;1.20;0.63;;;;;;;8.83;100.00;153626.59;5035861;28;20878;-94
2024/02/08 02:26:52;;;;;;;1.30;0.77;;;;;;;8.83;100.00;153626.59;5033521;28;20447;-94
2024/02/08 02:29:21;;;;;;;1.00;0.57;;;;;;;8.85;100.00;153631.75;5017267;28;20454;-94
2024/02/08 02:31:48;;;;;;;1.20;0.67;;;;;;;8.83;100.00;153626.59;5033353;28;20501;-94
2024/02/08 02:34:14;;;;;;;1.20;0.50;;;;;;;8.86;100.00;153634.34;5027336;28;20466;-94
2024/02/08 02:36:44;;;;;;;1.10;0.80;;;;;;;8.87;100.00;153636.94;5017806;28;20439;-95
2024/02/08 02:39:13;;;;;;;1.63;1.07;;;;;;;8.86;100.00;153635.66;5035860;28;20957;-94
2024/02/08 02:41:40;;;;;;;2.10;1.10;;;;;;;8.89;100.00;153642.13;5045319;28;20745;-94
2024/02/08 02:44:08;;;;;;;1.90;0.87;;;;;;;8.89;100.00;153643.41;5033221;28;20520;-94
2024/02/08 02:46:35;;;;;;;1.20;0.80;;;;;;;8.90;100.00;153644.66;5016736;28;20569;-94
2024/02/08 02:49:03;;;;;;;1.10;0.60;;;;;;;8.88;100.00;153639.50;5032866;28;20459;-94
2024/02/08 02:51:30;;;;;;;1.73;0.93;;;;;;;8.86;100.00;153635.66;5016363;28;20439;-94
2024/02/08 02:53:58;;;;;;;1.40;0.90;;;;;;;8.87;100.00;153638.22;5016358;28;20451;-95
2024/02/08 02:56:27;;;;;;;1.50;0.90;;;;;;;8.87;100.00;153636.94;5015878;28;20445;-94
2024/02/08 02:58:54;;;;;;;1.50;0.80;;;;;;;8.86;100.00;153634.34;5015803;28;20536;-94
2024/02/08 03:01:21;;;;;;;1.60;0.70;;;;;;;8.88;100.00;153639.50;5015913;28;20528;-95
2024/02/08 03:03:48;;;;;;;1.20;0.60;;;;;;;8.89;100.00;153643.41;5015757;28;20458;-94
2024/02/08 03:06:15;;;;;;;1.10;0.60;;;;;;;8.88;100.00;153639.50;5032541;28;20475;-94
2024/02/08 03:08:42;;;;;;;2.03;0.87;;;;;;;8.88;100.00;153639.50;5016367;28;20487;-94
2024/02/08 03:11:10;;;;;;;1.23;0.80;;;;;;;8.89;100.00;153642.13;5016638;28;20929;-94
2024/02/08 03:13:40;;;;;;;1.30;0.70;;;;;;;8.90;100.00;153644.66;5016439;28;20448;-94
2024/02/08 03:16:09;;;;;;;1.00;0.60;;;;;;;8.91;100.00;153647.28;5016005;28;20487;-94
2024/02/08 03:18:38;;;;;;;1.40;0.77;;;;;;;8.90;100.00;153645.97;5016043;28;20474;-94
2024/02/08 03:21:05;;;;;;;1.03;0.50;;;;;;;8.92;100.00;153651.13;5032766;28;20439;-94
2024/02/08 03:23:33;;;;;;;1.30;0.80;;;;;;;8.89;100.00;153643.41;5016399;28;20460;-94
2024/02/08 03:25:59;;;;;;;1.40;0.60;;;;;;;8.90;100.00;153644.66;5017609;28;20479;-94
2024/02/08 03:28:28;;;;;;;1.53;0.87;;;;;;;8.91;100.00;153647.28;5015591;28;20439;-95
2024/02/08 03:30:56;;;;;;;1.70;0.60;;;;;;;8.91;100.00;153647.28;5014357;28;20925;-94
2024/02/08 03:33:23;;;;;;;1.10;0.70;;;;;;;8.90;100.00;153644.66;5015198;28;20494;-94
2024/02/08 03:35:53;;;;;;;1.53;0.53;;;;;;;8.89;100.00;153643.41;5012579;28;20436;-94
2024/02/08 03:38:20;;;;;;;1.43;0.70;;;;;;;8.89;100.00;153642.13;5018362;28;20528;-94
2024/02/08 03:40:47;;;;;;;1.40;0.70;;;;;;;8.90;100.00;153644.66;5018382;28;20475;-94
2024/02/08 03:43:15;;;;;;;1.50;0.97;;;;;;;8.93;100.00;153652.44;5034807;28;20905;-94
2024/02/08 03:45:43;;;;;;;1.50;0.77;;;;;;;8.93;100.00;153653.72;5018221;28;20963;-94
2024/02/08 03:48:14;;;;;;;1.53;0.77;;;;;;;8.91;100.00;153647.28;5018500;28;20466;-94
2024/02/08 03:50:40;;;;;;;1.33;0.50;;;;;;;8.91;100.00;153648.56;5015863;28;20435;-94
2024/02/08 03:53:12;;;;;;;1.33;0.90;;;;;;;8.92;100.00;153649.88;5014565;28;20504;-94
2024/02/08 03:55:43;;;;;;;0.97;0.60;;;;;;;8.91;100.00;153647.28;5002610;28;20449;-94
2024/02/08 03:58:10;;;;;;;1.40;0.70;;;;;;;8.92;100.00;153649.88;5031207;28;20451;-94
2024/02/08 04:00:42;;;;;;;0.90;0.43;;;;;;;8.91;100.00;153647.28;5012879;28;20432;-94
2024/02/08 04:03:14;;;;;;;1.43;0.57;;;;;;;8.93;100.00;153652.44;5000518;28;20451;-93
2024/02/08 04:05:56;;;;;;;0.90;0.40;;;;;;;8.97;100.00;153662.81;5014088;28;21147;-93
2024/02/08 04:08:53;;;;;;;2.00;0.60;;;;;;;8.99;100.00;153667.97;5028459;28;20459;-93
2024/02/08 04:54:57;;;;;;;1.00;0.50;;;;;;;9.08;100.00;153692.50;5004476;28;20534;-94
2024/02/08 04:57:25;;;;;;;1.10;0.60;;;;;;;9.10;100.00;153696.41;5017153;28;20439;-94
2024/02/08 04:59:51;;;;;;;1.53;0.80;;;;;;;9.09;100.00;153693.81;5014200;28;20443;-93
2024/02/08 05:02:18;;;;;;;1.03;0.60;;;;;;;9.09;100.00;153695.13;5030313;28;20434;-94
2024/02/08 05:04:48;;;;;;;1.37;0.63;;;;;;;9.08;100.00;153692.50;5014184;28;20448;-94
2024/02/08 05:07:16;;;;;;;1.07;0.60;;;;;;;9.08;100.00;153691.25;5014206;28;20514;-93
2024/02/08 05:09:43;;;;;;;1.53;0.60;;;;;;;9.09;100.00;153695.13;5013891;28;20960;-95
2024/02/08 05:12:10;;;;;;;1.80;0.80;;;;;;;9.10;100.00;153697.72;5014303;28;20452;-93
2024/02/08 05:14:38;;;;;;;1.33;0.57;;;;;;;9.09;100.00;153693.81;5047243;28;20463;-93
2024/02/08 05:17:08;;;;;;;1.00;0.70;;;;;;;9.08;100.00;153692.50;5013512;28;21009;-94
2024/02/08 05:19:39;;;;;;;1.10;0.60;;;;;;;9.09;100.00;153693.81;4997258;28;20459;-94
2024/02/08 05:22:06;;;;;;;1.43;0.50;;;;;;;9.10;100.00;153696.41;5030556;28;20447;-94
2024/02/08 05:24:34;;;;;;;1.00;0.60;;;;;;;9.11;100.00;153698.97;5013299;28;20816;-94
2024/02/08 05:27:02;;;;;;;1.63;0.80;;;;;;;9.13;100.00;153705.44;5013771;28;20482;-94
2024/02/08 05:29:28;;;;;;;1.83;0.70;;;;;;;9.12;100.00;153702.88;5014138;28;20448;-94
2024/02/08 05:31:55;;;;;;;1.63;0.87;;;;;;;9.12;100.00;153702.88;5014401;28;20436;-94
2024/02/08 05:34:25;;;;;;;1.40;0.60;;;;;;;9.11;100.00;153698.97;5014744;28;20482;-95
2024/02/08 05:36:55;;;;;;;1.87;0.70;;;;;;;9.11;100.00;153698.97;5014224;28;20472;-95
2024/02/08 05:39:23;;;;;;;0.90;0.50;;;;;;;9.10;100.00;153696.41;5030168;28;20451;-95
2024/02/08 05:41:53;;;;;;;1.50;0.70;;;;;;;9.09;100.00;153695.13;5014002;28;20440;-95
2024/02/08 05:44:20;;;;;;;1.30;0.67;;;;;;;9.09;100.00;153695.13;5013660;28;20472;-95
2024/02/08 05:46:47;;;;;;;1.40;0.77;;;;;;;9.05;100.00;153683.50;5026414;28;20514;-94
2024/02/08 05:49:14;;;;;;;1.57;0.80;;;;;;;9.06;100.00;153686.06;5027991;28;21163;-94
2024/02/08 05:51:46;;;;;;;0.93;0.50;;;;;;;9.06;100.00;153687.34;5014560;28;20457;-94
2024/02/08 05:54:16;;;;;;;0.90;0.60;;;;;;;9.07;100.00;153689.97;5013573;28;20944;-94
2024/02/08 05:56:44;;;;;;;1.00;0.67;;;;;;;9.07;100.00;153689.97;5024573;28;20460;-94
2024/02/08 05:59:15;;;;;;;1.30;0.70;;;;;;;9.06;100.00;153687.34;5013448;28;20463;-94
2024/02/08 06:01:47;;;;;;;0.97;0.50;;;;;;;9.07;100.00;153688.66;4997149;28;20438;-94
2024/02/08 06:04:14;;;;;;;1.13;0.60;;;;;;;9.09;100.00;153693.81;5013706;28;20455;-94
2024/02/08 06:06:52;;;;;;;1.13;0.80;;;;;;;9.06;100.00;153686.06;5029934;28;20506;-94
2024/02/08 06:12:16;;;;;;;2.10;0.73;;;;;;;9.08;100.00;153691.25;5042617;23;20491;-94
2024/02/08 06:14:58;;;;;;;1.20;0.83;;;;;;;9.08;100.00;153692.50;5017703;28;20450;-93
2024/02/08 06:17:31;;;;;;;1.00;0.70;;;;;;;9.08;100.00;153691.25;5031826;28;20455;-93
2024/02/08 06:20:00;;;;;;;1.53;0.90;;;;;;;9.07;100.00;153688.66;5032163;28;20464;-93
2024/02/08 06:22:29;;;;;;;1.10;0.57;;;;;;;9.07;100.00;153688.66;5041905;28;20474;-93
2024/02/08 06:25:08;;;;;;;1.40;0.67;;;;;;;9.07;100.00;153688.66;5033649;28;20457;-92
2024/02/08 06:27:36;;;;;;;0.97;0.50;;;;;;;9.07;100.00;153688.66;5028104;28;20595;-92
2024/02/08 06:30:09;;;;;;;1.77;0.50;;;;;;;9.06;100.00;153686.06;5031097;28;20545;-93
2024/02/08 06:32:43;;;;;;;1.80;1.03;;;;;;;9.07;100.00;153688.66;5015893;28;20467;-91
2024/02/08 06:35:19;;;;;;;1.23;0.67;;;;;;;9.06;100.00;153687.34;5002526;28;20458;-93
2024/02/08 06:37:48;;;;;;;1.20;0.60;;;;;;;9.06;100.00;153686.06;5025321;28;20467;-92
2024/02/08 06:40:24;;;;;;;1.20;0.70;;;;;;;9.07;100.00;153688.66;5025111;28;20454;-93
2024/02/08 06:45:53;;;;;;;1.90;1.03;;;;;;;9.04;100.00;153682.19;5044440;28;20505;-93
2024/02/08 06:48:42;;;;;;;1.60;0.97;;;;;;;9.05;100.00;153684.75;5011493;28;21126;-94
2024/02/08 07:37:53;;;;;;;1.70;0.70;;;;;;;9.11;100.00;153698.97;5034927;28;20447;-92
2024/02/08 07:40:24;;;;;;;1.50;1.00;;;;;;;9.14;100.00;153706.75;5053125;28;20894;-92
2024/02/08 07:43:16;;;;;;;1.50;0.90;;;;;;;9.14;100.00;153708.03;5060708;28;20462;-92
2024/02/08 07:45:43;;;;;;;1.10;0.60;;;;;;;9.13;100.00;153704.19;5035157;28;20462;-92
2024/02/08 07:48:10;;;;;;;1.60;0.87;;;;;;;9.14;100.00;153708.03;5035822;28;20467;-92
2024/02/08 07:50:44;;;;;;;1.63;1.03;;;;;;;9.15;100.00;153709.34;5033902;28;20781;-92
2024/02/08 07:53:33;;;;;;;3.53;0.63;;;;;;;9.16;100.00;153711.91;5033041;28;20462;-92
2024/02/08 07:56:25;;;;;;;1.00;0.60;;;;;;;9.16;100.00;153711.91;5065811;28;20439;-92
2024/02/08 07:58:48;;;;;;;1.90;0.70;;;;;;;9.17;100.00;153714.50;5050681;28;20864;-93
2024/02/08 08:01:17;;;;;;;1.80;1.00;;;;;;;9.18;100.00;153717.13;5053169;28;20500;-93
2024/02/08 08:03:44;;;;;;;1.30;1.00;;;;;;;9.19;100.00;153719.69;5035716;28;21025;-92
2024/02/08 08:06:15;;;;;;;2.50;0.83;;;;;;;9.21;100.00;153723.59;5051345;28;20486;-93
2024/02/08 08:08:54;;;;;;;1.10;0.70;;;;;;;9.22;100.00;153727.44;5052989;28;20435;-93
2024/02/08 08:11:25;;;;;;;1.30;0.90;;;;;;;9.26;100.00;153736.50;5049543;28;20489;-93
2024/02/08 08:16:36;;;;;;;1.20;0.90;;;;;;;9.29;100.00;153745.59;5014284;28;20447;-93
2024/02/08 08:19:08;;;;;;;1.20;0.70;;;;;;;9.29;100.00;153745.59;5016523;28;20527;-93
2024/02/08 08:24:25;;;;;;;1.10;0.80;;;;;;;9.32;100.00;153753.31;5030435;28;20454;-93
2024/02/08 08:27:06;;;;;;;1.20;0.90;;;;;;;9.35;100.00;153759.75;5015206;28;20467;-94
2024/02/08 08:29:42;;;;;;;1.40;0.90;;;;;;;9.36;100.00;153763.66;5032990;28;20451;-93
2024/02/08 08:37:40;;;;;;;1.10;0.90;;;;;;;9.46;100.00;153789.53;5014776;28;20466;-93
2024/02/08 08:40:25;;;;;;;1.40;0.70;;;;;;;9.47;100.00;153790.84;5000885;28;20468;-94
2024/02/08 08:42:54;;;;;;;1.20;0.77;;;;;;;9.52;100.00;153805.06;5025396;28;20487;-93
2024/02/08 08:45:21;;;;;;;1.60;0.90;;;;;;;9.54;100.00;153810.25;5035270;28;20510;-93
2024/02/08 08:47:51;;;;;;;1.20;0.80;;;;;;;9.53;100.00;153807.63;5019730;28;20488;-93
2024/02/08 08:50:20;;;;;;;1.30;0.87;;;;;;;9.54;100.00;153810.25;5035183;28;20448;-93
2024/02/08 08:52:49;;;;;;;1.63;1.00;;;;;;;9.57;100.00;153818.00;5011802;28;20464;-93
2024/02/08 08:55:18;;;;;;;3.23;0.60;;;;;;;9.57;100.00;153816.69;5020416;28;20794;-94
2024/02/08 08:57:47;;;;;;;2.07;1.20;;;;;;;9.59;100.00;153823.16;5012971;28;20454;-94
2024/02/08 09:00:31;;;;;;;1.03;0.80;;;;;;;9.60;100.00;153825.78;5031924;28;20860;-94
2024/02/08 09:02:59;;;;;;;1.10;0.60;;;;;;;9.64;100.00;153836.09;5028021;28;20836;-94
2024/02/08 09:05:30;;;;;;;1.50;1.00;;;;;;;9.69;100.00;153849.03;5032057;28;20505;-94
2024/02/08 09:07:59;;;;;;;1.43;0.73;;;;;;;9.71;100.00;153852.94;5030510;28;21059;-94
2024/02/08 09:10:26;;;;;;;1.17;0.60;;;;;;;9.74;100.00;153861.97;5011907;28;20440;-94
2024/02/08 09:12:59;;;;;;;1.43;0.60;;;;;;;9.76;100.00;153867.19;5018518;28;20578;-93
2024/02/08 09:15:27;;;;;;;1.07;0.60;;;;;;;9.79;100.00;153874.91;5011945;28;20451;-93
2024/02/08 09:17:57;;;;;;;1.30;0.70;;;;;;;9.83;100.00;153883.97;5028964;28;20828;-94
2024/02/08 09:20:28;;;;;;;1.83;0.70;;;;;;;9.85;100.00;153887.88;5027890;28;20455;-93
2024/02/08 09:22:55;;;;;;;1.30;0.60;;;;;;;9.86;100.00;153890.44;5010672;28;20459;-92
2024/02/08 09:25:23;;;;;;;1.20;0.53;;;;;;;9.88;100.00;153895.59;5030567;28;20455;-93
2024/02/08 09:27:56;;;;;;;1.30;0.80;;;;;;;9.89;100.00;153898.22;5030009;28;21346;-93
2024/02/08 09:30:37;;;;;;;0.90;0.50;;;;;;;9.93;100.00;153908.59;5021363;28;20475;-93
2024/02/08 09:33:13;;;;;;;1.27;0.80;;;;;;;9.96;100.00;153917.63;5023800;28;20441;-93
2024/02/08 09:35:41;;;;;;;1.20;0.63;;;;;;;10.01;100.00;153930.56;4986364;28;20456;-94
2024/02/08 09:38:09;;;;;;;1.10;0.60;;;;;;;10.04;100.00;153937.03;5028603;28;20458;-93
2024/02/08 09:40:45;;;;;;;1.07;0.80;;;;;;;10.06;100.00;153943.50;5030265;28;20518;-93
2024/02/08 09:43:17;;;;;;;1.17;0.77;;;;;;;10.08;100.00;153948.72;5028707;28;20535;-93
2024/02/08 09:45:44;;;;;;;1.20;0.73;;;;;;;10.12;100.00;153957.72;4990739;28;20496;-94
2024/02/08 09:48:25;;;;;;;0.90;0.50;;;;;;;10.17;100.00;153970.72;5026547;28;20533;-94
2024/02/08 09:50:59;;;;;;;1.30;0.80;;;;;;;10.20;100.00;153979.81;5029621;28;20459;-93
2024/02/08 09:53:28;;;;;;;1.70;0.83;;;;;;;10.25;100.00;153991.44;4995836;28;20464;-93
2024/02/08 09:55:59;;;;;;;1.77;0.80;;;;;;;10.26;100.00;153994.03;5031220;28;20452;-93
2024/02/08 09:58:37;;;;;;;1.30;0.50;;;;;;;10.31;100.00;154007.00;5023824;28;20444;-93
2024/02/08 10:01:21;;;;;;;1.03;0.60;;;;;;;10.34;100.00;154014.75;5010842;28;20630;-93
2024/02/08 10:03:47;;;;;;;1.00;0.60;;;;;;;10.35;100.00;154017.38;5013743;28;20463;-93
2024/02/08 10:06:23;;;;;;;1.20;0.60;;;;;;;10.38;100.00;154025.09;5029223;28;20452;-93
2024/02/08 10:08:54;;;;;;;1.50;0.70;;;;;;;10.37;100.00;154022.53;5012087;28;20456;-93
2024/02/08 10:11:35;;;;;;;1.00;0.50;;;;;;;10.43;100.00;154038.09;5029958;28;20452;-93
2024/02/08 10:14:02;;;;;;;1.50;0.47;;;;;;;10.44;100.00;154039.34;5026183;28;20483;-93
2024/02/08 10:16:42;;;;;;;0.90;0.50;;;;;;;10.47;100.00;154048.41;5012634;28;20454;-93
2024/02/08 10:22:10;;;;;;;1.20;0.80;;;;;;;10.50;100.00;154056.19;5023628;28;20469;-93
2024/02/08 10:26:19;;;;;;;0.90;0.50;;;;;;;10.53;100.00;154063.97;5010199;28;20454;-92
2024/02/08 10:27:35;;;;;;;2.20;0.80;;;;;;;10.56;100.00;154070.44;5024073;28;20463;-92
2024/02/08 10:30:06;;;;;;;1.00;0.50;;;;;;;10.58;100.00;154076.91;5021058;28;20460;-93
2024/02/08 10:32:33;;;;;;;1.40;0.50;;;;;;;10.59;100.00;154079.47;4994366;28;20443;-93
2024/02/08 10:35:13;;;;;;;1.00;0.53;;;;;;;10.62;100.00;154085.94;5011714;28;20946;-93
2024/02/08 10:37:47;;;;;;;1.00;0.63;;;;;;;10.66;100.00;154097.63;5010399;28;20538;-92
2024/02/08 10:40:32;;;;;;;0.90;0.40;;;;;;;10.66;100.00;154096.31;5029987;28;20458;-93
2024/02/08 10:43:02;;;;;;;2.53;0.73;;;;;;;10.67;100.00;154100.19;5034982;28;20479;-93
2024/02/08 10:45:32;;;;;;;0.80;0.50;;;;;;;10.67;100.00;154100.19;5013241;28;21283;-94
2024/02/08 10:47:59;;;;;;;0.80;0.50;;;;;;;10.68;100.00;154101.50;5014224;28;20502;-93
2024/02/08 10:50:27;;;;;;;1.00;0.60;;;;;;;10.69;100.00;154105.41;5012340;28;20562;-93
2024/02/08 10:53:00;;;;;;;1.20;0.70;;;;;;;10.68;100.00;154101.50;5018345;28;20491;-92
2024/02/08 10:55:36;;;;;;;1.00;0.60;;;;;;;10.68;100.00;154101.50;5002991;28;20451;-94
2024/02/08 10:58:21;;;;;;;0.97;0.43;;;;;;;10.69;100.00;154105.41;5010354;28;20451;-94
2024/02/08 11:01:06;;;;;;;0.80;0.50;;;;;;;10.69;100.00;154105.41;5015837;28;20467;-94
2024/02/08 11:03:35;;;;;;;0.93;0.50;;;;;;;10.70;100.00;154107.97;5017883;28;20530;-94
2024/02/08 11:06:04;;;;;;;1.20;0.50;;;;;;;10.68;100.00;154102.78;5031468;28;20833;-93
2024/02/08 11:08:33;;;;;;;3.53;0.50;;;;;;;10.69;100.00;154104.09;5015445;28;20480;-93
2024/02/08 11:11:03;;;;;;;1.40;0.73;;;;;;;10.74;100.00;154118.34;5019531;28;20547;-93
2024/02/08 11:13:37;;;;;;;1.43;0.70;;;;;;;10.73;100.00;154115.75;5040442;28;20491;-94
2024/02/08 11:16:19;;;;;;;1.70;0.60;;;;;;;10.75;100.00;154120.91;5030797;28;20497;-94
2024/02/08 11:18:47;;;;;;;1.87;0.70;;;;;;;10.77;100.00;154126.13;5046939;28;20451;-93
2024/02/08 11:21:19;;;;;;;1.00;0.50;;;;;;;10.83;100.00;154141.63;5030438;28;20824;-94
2024/02/08 11:23:51;;;;;;;1.37;0.67;;;;;;;10.85;100.00;154145.53;5037167;28;20545;-93
2024/02/08 11:26:18;;;;;;;1.20;0.50;;;;;;;10.87;100.00;154152.03;5049697;28;20459;-93
2024/02/08 11:28:47;;;;;;;1.17;0.60;;;;;;;10.88;100.00;154154.56;5025327;28;20966;-93
2024/02/08 11:31:16;;;;;;;1.30;0.40;;;;;;;10.91;100.00;154161.06;5024561;28;20465;-93
2024/02/08 11:33:43;;;;;;;1.13;0.70;;;;;;;10.91;100.00;154162.34;5031692;28;20934;-93
2024/02/08 11:36:13;;;;;;;0.90;0.50;;;;;;;10.97;100.00;154176.59;5034007;28;20470;-93
2024/02/08 11:38:45;;;;;;;1.00;0.67;;;;;;;11.00;100.00;154184.38;5041962;28;20451;-93
2024/02/08 11:41:13;;;;;;;0.90;0.43;;;;;;;11.00;100.00;154184.38;5030647;28;20451;-94
2024/02/08 11:43:46;;;;;;;1.47;0.40;;;;;;;11.00;100.00;154185.69;5034392;28;20458;-93
2024/02/08 11:46:18;;;;;;;0.90;0.63;;;;;;;11.07;100.00;154201.25;5033246;28;20795;-93
2024/02/08 11:48:46;;;;;;;1.27;0.50;;;;;;;11.08;100.00;154203.81;5047770;28;20463;-93
2024/02/08 11:51:14;;;;;;;1.00;0.43;;;;;;;11.08;100.00;154205.13;5040495;28;20571;-93
2024/02/08 11:53:44;;;;;;;1.00;0.60;;;;;;;11.12;100.00;154215.44;5051244;28;20924;-93
2024/02/08 11:56:12;;;;;;;3.27;0.70;;;;;;;11.12;100.00;154215.44;5030945;28;20466;-93
2024/02/08 11:58:43;;;;;;;1.10;0.47;;;;;;;11.13;100.00;154218.06;5046379;28;20443;-93
2024/02/08 12:01:13;;;;;;;2.37;0.70;;;;;;;11.12;100.00;154215.44;5046764;28;20466;-93
2024/02/08 12:03:42;;;;;;;1.73;0.80;;;;;;;11.15;100.00;154221.94;5033423;28;20958;-93
2024/02/08 12:06:22;;;;;;;1.40;0.50;;;;;;;11.17;100.00;154227.16;5044599;28;20528;-93
2024/02/08 12:08:57;;;;;;;1.10;0.57;;;;;;;11.15;100.00;154221.94;5032482;28;20470;-93
2024/02/08 12:11:24;;;;;;;1.90;0.63;;;;;;;11.14;100.00;154220.66;5043820;28;20536;-93
2024/02/08 12:13:53;;;;;;;1.57;0.73;;;;;;;11.14;100.00;154219.38;5037734;28;20560;-93
2024/02/08 12:16:19;;;;;;;0.97;0.40;;;;;;;11.14;100.00;154219.38;5043521;28;20786;-93
2024/02/08 12:18:55;;;;;;;3.93;0.80;;;;;;;11.17;100.00;154227.16;5036834;28;20558;-93
2024/02/08 12:21:23;;;;;;;1.30;0.90;;;;;;;11.19;100.00;154232.31;5008953;28;20598;-92
2024/02/08 12:23:53;;;;;;;2.13;0.77;;;;;;;11.22;100.00;154241.41;5007518;28;20485;-92
2024/02/08 12:26:22;;;;;;;2.80;0.63;;;;;;;11.26;100.00;154250.44;5007603;28;20491;-92
2024/02/08 12:28:50;;;;;;;1.33;0.70;;;;;;;11.28;100.00;154255.66;5025583;28;20480;-92
2024/02/08 12:31:17;;;;;;;2.07;0.70;;;;;;;11.29;100.00;154259.53;4996311;28;20932;-91
2024/02/08 12:33:50;;;;;;;2.10;1.40;;;;;;;11.28;100.00;154255.66;5011715;28;20446;-93
2024/02/08 12:36:18;;;;;;;1.47;0.80;;;;;;;11.26;100.00;154250.44;5029247;28;20495;-92
2024/02/08 12:38:46;;;;;;;2.10;1.03;;;;;;;11.26;100.00;154251.75;5022919;28;20775;-92
2024/02/08 12:41:13;;;;;;;2.40;0.80;;;;;;;11.27;100.00;154253.03;5027804;28;20514;-92
2024/02/08 12:43:42;;;;;;;1.17;0.70;;;;;;;11.28;100.00;154255.66;5024723;28;20456;-92
2024/02/08 12:46:09;;;;;;;1.80;0.70;;;;;;;11.29;100.00;154259.53;5011046;28;20558;-91
2024/02/08 12:48:36;;;;;;;1.17;0.70;;;;;;;11.34;100.00;154271.16;5010195;28;20491;-90
2024/02/08 12:51:04;;;;;;;2.67;1.03;;;;;;;11.38;100.00;154281.56;5010221;28;20460;-92
2024/02/08 12:53:30;;;;;;;3.37;0.93;;;;;;;11.41;100.00;154289.34;5025885;28;20543;-91
2024/02/08 12:56:05;;;;;;;3.30;1.10;;;;;;;11.42;100.00;154291.91;5020536;28;20862;-92
2024/02/08 12:58:31;;;;;;;3.53;1.53;;;;;;;11.46;100.00;154302.28;5005690;28;20509;-92
2024/02/08 13:01:04;;;;;;;2.80;0.80;;;;;;;11.48;100.00;154307.47;5026346;28;20488;-91
2024/02/08 13:03:32;;;;;;;2.03;1.50;;;;;;;11.49;100.00;154311.31;5021564;28;20445;-91
2024/02/08 13:05:58;;;;;;;3.83;1.20;;;;;;;11.50;100.00;154312.63;5025859;28;20510;-92
2024/02/08 13:08:26;;;;;;;3.17;1.30;;;;;;;11.50;100.00;154312.63;5025459;28;20527;-92
2024/02/08 13:10:55;;;;;;;3.07;1.60;;;;;;;11.51;100.00;154315.25;5024540;28;20450;-92
2024/02/08 13:13:23;;;;;;;7.80;1.20;;;;;;;11.49;100.00;154310.06;5010452;28;20835;-92
2024/02/08 13:15:58;;;;;;;4.40;1.60;;;;;;;11.53;100.00;154320.41;5030543;28;20967;-92
2024/02/08 13:18:29;;;;;;;2.53;1.50;;;;;;;11.54;100.00;154324.28;5008167;28;20522;-91
2024/02/08 13:21:00;;;;;;;2.70;1.47;;;;;;;11.55;100.00;154325.59;5011602;28;20460;-92
2024/02/08 13:23:28;;;;;;;2.60;1.30;;;;;;;11.57;100.00;154330.75;5011023;28;20451;-92
2024/02/08 13:26:01;;;;;;;6.30;1.63;;;;;;;11.62;100.00;154343.75;5012413;28;20466;-92